Lufkin, TX

11:53 AM CST on December 19, 2014 (GMT -0600)
Brookhollow | Change Station
CLOSE
Current Station
Personal Weather Station
Location: Lufkin, TX
Elevation: 299 ft
Nearby Weather Stations

Elev 299 ft 31.31 °N, 94.76 °W | Updated 1 minute ago

Rain
Rain
50.0 °F
Feels Like 50.0 °F
N
2.7
Wind Variable Wind from SE

Today
High -- | Low -- °F
--% Chance of Precip.
Yesterday
High -- | Low -- °F
Precip. -- in
7:12 AM 5:19 PM
Waning Crescent, 7% visible
Pressure 30.14 in
Visibility 10.0 miles
Clouds Few 900 ft
Overcast 2800 ft
Dew Point 50 °F
Humidity 99%
Rainfall 0.81 in
Snow Depth Not available.
UV 1 out of 12
Pollen .50 out of 12
Air Quality Not available.
Flu Activity Not available.
SPECI KLFK 191741Z AUTO 04008KT 10SM -RA FEW009 OVC028 12/09 A3014 RMK AO2 P0001 T01170089

More Conditions Fewer Conditions

Pressure 30.14 in
Visibility 10.0 miles
Clouds Few 900 ft
Overcast 2800 ft
Dew Point 50 °F
Humidity 99%
Rainfall 0.81 in
Snow Depth Not available.
UV 1 out of 12
Pollen .50 out of 12
Air Quality Not available.
Flu Activity Not available.
SPECI KLFK 191741Z AUTO 04008KT 10SM -RA FEW009 OVC028 12/09 A3014 RMK AO2 P0001 T01170089

More Conditions Fewer Conditions

Nowcast | as of 10:42 am CST on December 19, 2014

Light rain...with a few embedded thunderstorms...will continue to spread northeast across the region over the next couple of hours. Most of the heaviest rainfall will be east of a line from Lufkin Texas...to Shreveport Louisiana...to hope Arkansas. Rainfall rates of up to a half an inch per hour can be expected with the heavier convection.

×

10-Day Weather Forecast

Almanac

Astronomy

Dec. 19, 2014 Rise Set
Actual Time
Civil Twilight
Nautical Twilight
Astronomical Twilight
Moon
Length of Visible Light
Length of Day
Tomorrow will be .
, % of the Moon is Illuminated

Today's Extremes

State Highs State Lows

Community

WunderPhotos

Upload Photos

1,779,009 photos uploaded!

WunderBlogs® & News

Nearby

Air Quality

  Air Quality AQ Index Pollutant
Not available.

Snow Depth

Station Depth Elevation

Earthquake Activity

City Distance Mag. Time & Date
Minimum magnitude displayed is 2.5.

Coastal Water Temperatures

Place Temperature

Nearby Weather Stations